Time;durP1;ratioP1;P1;durP2;ratioP2;P2;SDS_P1;SDS_P2;PMS_P1;PMS_P2;Temp;Humidity;BMP_temperature;BMP_pressure;BME280_temperature;BME280_humidity;BME280_pressure;Samples;Min_cycle;Max_cycle;Signal;HPM_P1;HPM_P2
2022/11/22 00:01:03;;;;;;;39.08;16.40;;;;;;;28.53;71.75;100545.09;5084353;27;66254;-30
2022/11/22 00:03:34;;;;;;;;;;;;;;;28.36;74.27;100544.69;5083974;27;70066;-31
2022/11/22 00:06:05;;;;;;;29.23;19.85;;;;;;;28.60;73.89;100540.47;5090642;27;67389;-30
2022/11/22 00:08:36;;;;;;;63.30;23.53;;;;;;;28.67;74.93;100543.16;5089807;27;69230;-31
2022/11/22 00:11:07;;;;;;;43.63;24.57;;;;;;;28.71;75.32;100552.47;5087418;27;66161;-30
2022/11/22 00:13:38;;;;;;;30.10;24.38;;;;;;;28.74;75.44;100558.28;5089986;27;69442;-31
2022/11/22 00:16:11;;;;;;;33.00;26.77;;;;;;;28.77;75.80;100567.81;5084732;27;65331;-31
2022/11/22 00:18:43;;;;;;;34.00;27.40;;;;;;;28.81;74.86;100571.75;5085084;27;70168;-30
2022/11/22 00:21:14;;;;;;;39.03;24.60;;;;;;;28.80;76.56;100572.78;5083460;27;65726;-30
2022/11/22 00:23:45;;;;;;;29.52;24.98;;;;;;;28.78;77.68;100569.50;5085754;27;69944;-30
2022/11/22 00:26:16;;;;;;;31.02;24.30;;;;;;;28.85;77.83;100581.06;5092722;27;66297;-31
2022/11/22 00:28:48;;;;;;;31.13;24.55;;;;;;;28.86;78.20;100577.34;5089561;27;70389;-31
2022/11/22 00:31:19;;;;;;;33.88;25.55;;;;;;;28.92;78.13;100590.00;5084957;27;66341;-33
2022/11/22 00:33:50;;;;;;;41.93;25.27;;;;;;;28.93;77.22;100586.25;5088083;27;70106;-31
2022/11/22 00:36:22;;;;;;;35.70;24.48;;;;;;;28.92;77.68;100581.88;5082078;27;65807;-30
2022/11/22 00:38:53;;;;;;;;;;;;;;;28.73;78.53;100582.78;5086172;27;70153;-29
2022/11/22 00:41:24;;;;;;;38.90;25.67;;;;;;;28.83;77.32;100566.97;5082126;27;65807;-32
2022/11/22 00:43:56;;;;;;;43.90;25.08;;;;;;;28.99;77.46;100586.44;5081725;27;69803;-31
2022/11/22 00:46:27;;;;;;;33.63;25.67;;;;;;;28.95;78.14;100580.63;5087550;27;66939;-31
2022/11/22 00:48:59;;;;;;;33.15;24.75;;;;;;;28.99;78.27;100589.13;5079455;27;69711;-32
2022/11/22 00:51:30;;;;;;;38.08;26.00;;;;;;;28.91;77.78;100580.22;5087315;27;66721;-31
2022/11/22 00:54:01;;;;;;;29.67;23.80;;;;;;;29.03;74.80;100593.94;5085145;27;70333;-31
2022/11/22 00:56:32;;;;;;;28.27;21.42;;;;;;;29.08;73.58;100607.59;5088177;27;65944;-32
2022/11/22 00:59:04;;;;;;;24.45;20.17;;;;;;;29.05;73.70;100612.59;5085408;27;70139;-32
2022/11/22 01:01:35;;;;;;;22.13;19.77;;;;;;;29.15;73.11;100621.09;5083161;27;66530;-33
2022/11/22 01:04:06;;;;;;;23.43;19.10;;;;;;;29.06;72.43;100603.44;5087895;27;69524;-30
2022/11/22 01:06:38;;;;;;;25.63;19.53;;;;;;;29.04;72.73;100597.44;5082921;27;66043;-32
2022/11/22 01:09:10;;;;;;;20.98;18.80;;;;;;;28.87;72.02;100570.91;5079177;27;70227;-30
2022/11/22 01:11:41;;;;;;;;;;;;;;;28.92;75.29;100638.59;5088371;27;66161;-31
2022/11/22 01:14:13;;;;;;;24.05;18.50;;;;;;;29.17;72.78;100629.81;5079408;27;69509;-31
2022/11/22 01:16:45;;;;;;;27.85;20.02;;;;;;;29.26;72.95;100642.00;5068038;27;65045;-31
2022/11/22 01:19:16;;;;;;;25.92;19.67;;;;;;;29.27;72.94;100649.06;5080343;27;69653;-32
2022/11/22 01:21:47;;;;;;;27.10;19.23;;;;;;;29.29;72.18;100657.78;5079977;27;66213;-32
2022/11/22 01:24:19;;;;;;;25.80;19.77;;;;;;;29.20;72.81;100642.03;5081184;27;70117;-31
2022/11/22 01:26:50;;;;;;;30.52;20.20;;;;;;;29.31;72.31;100663.81;5084240;27;66250;-32
2022/11/22 01:29:21;;;;;;;25.67;19.98;;;;;;;29.31;72.94;100669.22;5078000;27;69963;-35
2022/11/22 01:31:53;;;;;;;22.25;19.00;;;;;;;29.32;72.32;100668.16;5083099;27;66612;-30
2022/11/22 01:34:24;;;;;;;20.80;18.67;;;;;;;29.33;72.39;100669.00;5079828;27;69238;-31
2022/11/22 01:36:56;;;;;;;20.25;18.15;;;;;;;29.34;72.58;100678.78;5087011;27;66651;-32
2022/11/22 01:39:27;;;;;;;;;;;;;;;29.01;75.05;100684.25;5085118;27;70527;-31
2022/11/22 01:41:58;;;;;;;37.05;18.20;;;;;;;29.32;72.70;100688.97;5080398;27;66317;-32
2022/11/22 01:44:32;;;;;;;25.55;17.08;;;;;;;29.35;72.36;100699.34;5084306;27;69934;-30
2022/11/22 01:47:20;;;;;;;23.08;17.13;;;;;;;29.29;72.93;100705.59;5084039;27;66501;-31
2022/11/22 01:49:56;;;;;;;22.52;17.42;;;;;;;29.02;72.63;100645.41;5090331;27;70238;-32
2022/11/22 01:52:31;;;;;;;23.95;17.63;;;;;;;29.22;72.54;100684.00;5089291;27;66115;-32
2022/11/22 01:55:10;;;;;;;23.55;16.58;;;;;;;29.39;72.70;100706.81;5081931;27;71281;-30
2022/11/22 01:57:43;;;;;;;26.67;17.30;;;;;;;29.35;72.21;100710.13;5069695;27;66215;-33
2022/11/22 02:00:17;;;;;;;34.50;17.70;;;;;;;28.88;71.94;100629.25;5087400;27;69583;-31
2022/11/22 02:02:55;;;;;;;25.30;16.98;;;;;;;28.96;72.60;100637.09;5086889;27;65737;-33
2022/11/22 02:05:32;;;;;;;23.73;16.95;;;;;;;29.44;71.74;100716.13;5086173;27;69298;-31
2022/11/22 02:08:27;;;;;;;20.40;16.75;;;;;;;29.33;72.56;100718.44;5087235;27;66632;-31
2022/11/22 02:11:01;;;;;;;19.00;15.40;;;;;;;29.42;71.69;100710.94;5084040;27;69582;-31
2022/11/22 02:13:38;;;;;;;21.17;16.55;;;;;;;28.49;71.10;100555.44;5083330;27;66463;-31
2022/11/22 02:16:11;;;;;;;23.85;16.98;;;;;;;28.93;71.45;100621.34;5055533;27;69599;-32
2022/11/22 02:18:42;;;;;;;21.25;16.77;;;;;;;29.44;71.63;100708.03;5078991;27;65631;-34
2022/11/22 02:21:13;;;;;;;20.52;15.38;;;;;;;29.43;70.88;100707.19;5080948;27;69571;-32
2022/11/22 02:24:04;;;;;;;17.90;16.05;;;;;;;29.38;71.38;100705.13;5088425;27;65540;-31
2022/11/22 02:26:36;;;;;;;17.50;14.80;;;;;;;29.39;71.31;100695.13;5078359;27;70118;-31
2022/11/22 02:29:08;;;;;;;19.65;15.57;;;;;;;29.38;71.07;100688.91;5078445;27;66282;-32
2022/11/22 02:31:46;;;;;;;20.95;14.73;;;;;;;29.46;71.20;100697.84;5078630;27;69729;-33
2022/11/22 02:34:18;;;;;;;15.95;14.38;;;;;;;29.47;71.20;100696.78;5088508;27;65471;-32
2022/11/22 02:36:52;;;;;;;18.63;14.70;;;;;;;29.05;70.57;100615.31;5088692;27;70079;-32
2022/11/22 02:39:30;;;;;;;18.08;15.05;;;;;;;29.52;70.95;100686.16;5089796;27;66723;-32
2022/11/22 02:42:02;;;;;;;16.67;15.02;;;;;;;29.50;71.42;100680.13;5076729;27;69411;-31
2022/11/22 02:44:34;;;;;;;17.03;14.67;;;;;;;29.48;71.13;100672.25;5081180;27;65496;-31
2022/11/22 02:47:05;;;;;;;17.58;14.13;;;;;;;29.51;70.75;100665.59;5090333;27;70237;-33
2022/11/22 02:49:37;;;;;;;18.05;14.02;;;;;;;29.51;71.16;100671.00;5083973;27;66037;-36
2022/11/22 02:52:08;;;;;;;18.20;14.60;;;;;;;29.52;71.28;100669.94;5078557;27;70420;-30
2022/11/22 02:54:40;;;;;;;17.90;13.80;;;;;;;29.50;70.59;100663.91;5080259;27;66278;-34
2022/11/22 02:57:11;;;;;;;17.50;13.70;;;;;;;29.48;70.58;100666.03;5079051;27;69655;-33
2022/11/22 02:59:43;;;;;;;16.33;14.00;;;;;;;29.43;70.73;100647.75;5078864;27;65157;-35
2022/11/22 03:02:14;;;;;;;18.45;13.52;;;;;;;29.50;70.55;100653.09;5088078;27;70283;-32
2022/11/22 03:04:46;;;;;;;14.90;13.17;;;;;;;29.59;70.58;100659.94;5079965;27;66415;-31
2022/11/22 03:07:18;;;;;;;15.27;13.35;;;;;;;29.57;70.14;100659.31;5079559;27;69633;-32
2022/11/22 03:09:49;;;;;;;21.33;14.37;;;;;;;29.56;69.99;100657.63;5087838;27;65098;-32
2022/11/22 03:12:20;;;;;;;18.45;14.65;;;;;;;29.60;70.72;100664.28;5081225;27;70137;-31
2022/11/22 03:14:52;;;;;;;18.27;14.30;;;;;;;29.60;69.91;100658.88;5088614;27;65406;-34
2022/11/22 03:17:23;;;;;;;17.37;13.60;;;;;;;29.55;70.10;100651.41;5091019;27;70361;-31
2022/11/22 03:19:54;;;;;;;23.05;13.43;;;;;;;29.60;70.43;100651.59;5093053;27;66411;-31
2022/11/22 03:22:25;;;;;;;16.00;13.02;;;;;;;29.56;69.72;100642.28;5084170;27;70493;-30
2022/11/22 03:24:57;;;;;;;15.83;13.83;;;;;;;29.63;69.96;100642.25;5086903;27;66151;-32
2022/11/22 03:27:28;;;;;;;15.33;13.73;;;;;;;29.67;69.65;100651.59;5088154;27;70364;-32
2022/11/22 03:29:59;;;;;;;16.47;13.03;;;;;;;29.67;69.59;100648.91;5090536;27;65609;-31
2022/11/22 03:32:31;;;;;;;18.85;14.15;;;;;;;29.56;70.16;100619.81;5050445;28;69688;-30
2022/11/22 03:35:03;;;;;;;17.60;13.85;;;;;;;29.69;70.01;100640.56;5081098;27;66755;-33
2022/11/22 03:37:34;;;;;;;17.65;14.30;;;;;;;29.57;70.02;100616.06;5089836;27;68556;-31
2022/11/22 03:40:06;;;;;;;18.17;14.13;;;;;;;29.76;70.39;100630.53;5081850;27;66202;-30
2022/11/22 03:42:38;;;;;;;17.40;14.35;;;;;;;29.79;70.49;100630.09;5074727;27;69236;-31
2022/11/22 03:45:10;;;;;;;16.55;14.23;;;;;;;29.71;70.44;100612.25;5084346;27;65481;-31
2022/11/22 03:47:41;;;;;;;22.15;15.27;;;;;;;29.83;70.65;100625.88;5096865;27;69294;-30
2022/11/22 03:50:12;;;;;;;20.47;15.43;;;;;;;29.77;70.44;100608.66;5081627;27;64662;-31
2022/11/22 03:52:43;;;;;;;22.50;16.07;;;;;;;29.82;70.26;100608.84;5086910;27;69932;-31
2022/11/22 03:55:14;;;;;;;20.77;15.27;;;;;;;29.91;70.76;100616.69;5086187;27;65121;-31
2022/11/22 03:57:45;;;;;;;20.33;15.70;;;;;;;29.94;70.45;100610.84;5083396;27;69951;-31
2022/11/22 04:00:18;;;;;;;19.80;15.27;;;;;;;29.97;70.63;100610.41;5082794;27;66513;-34
2022/11/22 04:02:49;;;;;;;19.40;15.63;;;;;;;29.99;70.16;100608.31;5084627;27;70572;-33
2022/11/22 04:05:21;;;;;;;19.65;15.77;;;;;;;30.01;70.07;100601.63;5076608;27;65639;-32
2022/11/22 04:08:01;;;;;;;18.00;14.80;;;;;;;30.01;70.17;100595.41;5088142;27;69478;-31
2022/11/22 04:10:32;;;;;;;20.27;15.35;;;;;;;30.08;69.98;100595.31;5080076;27;66144;-31
2022/11/22 04:13:04;;;;;;;24.27;15.88;;;;;;;30.10;70.15;100601.34;5082067;27;69633;-31
2022/11/22 04:15:36;;;;;;;18.30;15.63;;;;;;;30.09;69.49;100597.81;5088266;27;66023;-32
2022/11/22 04:18:12;;;;;;;20.20;15.57;;;;;;;29.96;69.99;100554.66;5092327;27;69535;-31
2022/11/22 04:23:32;;;;;;;19.02;14.93;;;;;;;30.17;69.67;100578.59;5085872;27;70000;-31
2022/11/22 04:26:04;;;;;;;19.17;14.17;;;;;;;30.13;69.98;100577.38;5080196;27;66873;-33
2022/11/22 04:28:35;;;;;;;16.67;14.88;;;;;;;30.07;70.03;100553.94;5081386;27;70396;-31
2022/11/22 04:34:15;;;;;;;18.52;13.50;;;;;;;30.22;69.27;100554.41;5088211;27;69714;-31
2022/11/22 04:36:47;;;;;;;14.80;13.37;;;;;;;30.24;69.19;100552.31;5073161;27;66279;-30
2022/11/22 04:39:18;;;;;;;17.83;14.73;;;;;;;30.26;69.35;100549.41;5080990;27;70404;-31
2022/11/22 04:44:44;;;;;;;20.55;14.23;;;;;;;30.24;69.20;100530.69;5088404;27;70613;-33
2022/11/22 04:52:52;;;;;;;16.35;13.68;;;;;;;29.36;69.44;100372.22;5085768;27;69082;-34
2022/11/22 04:52:59;;;;;;;15.43;13.77;;;;;;;30.26;69.11;100523.19;5081331;27;66003;-33
2022/11/22 04:55:30;;;;;;;16.77;13.77;;;;;;;30.23;69.46;100512.81;5090729;27;69825;-31
2022/11/22 04:58:02;;;;;;;18.95;13.65;;;;;;;30.30;69.25;100517.31;5084435;27;66356;-31
2022/11/22 05:00:33;;;;;;;23.80;15.10;;;;;;;30.31;69.02;100510.84;5083440;27;70737;-30
2022/11/22 05:03:05;;;;;;;18.17;13.93;;;;;;;30.31;69.02;100508.94;5081156;27;65591;-32
2022/11/22 05:05:41;;;;;;;16.63;14.30;;;;;;;30.33;69.13;100517.69;5080170;27;70976;-32
2022/11/22 05:08:13;;;;;;;17.75;14.13;;;;;;;30.33;68.54;100495.22;5083926;27;65464;-31
2022/11/22 05:10:58;;;;;;;18.33;14.70;;;;;;;30.32;68.61;100494.38;5086467;27;69776;-31
2022/11/22 05:13:38;;;;;;;17.15;13.57;;;;;;;30.35;68.49;100493.13;5085627;27;65919;-31
2022/11/22 05:16:13;;;;;;;24.75;14.00;;;;;;;29.39;68.18;100333.09;5089989;27;70503;-33
2022/11/22 05:18:57;;;;;;;24.73;13.90;;;;;;;30.34;68.62;100473.34;5088877;27;66557;-33
2022/11/22 05:21:29;;;;;;;23.23;14.30;;;;;;;30.27;68.18;100459.88;5083922;27;70517;-31
2022/11/22 05:24:01;;;;;;;15.55;13.75;;;;;;;30.06;68.34;100426.00;5080273;27;66763;-32
2022/11/22 05:26:35;;;;;;;16.10;13.32;;;;;;;30.25;68.17;100451.16;5084242;27;70178;-34
2022/11/22 05:29:09;;;;;;;15.25;13.60;;;;;;;30.35;68.17;100460.66;5080420;27;65493;-34
2022/11/22 05:31:41;;;;;;;18.38;13.93;;;;;;;30.34;68.29;100453.56;5085346;27;69830;-36
2022/11/22 05:34:19;;;;;;;20.95;13.35;;;;;;;30.35;67.86;100449.81;5090450;27;66205;-33
2022/11/22 05:36:50;;;;;;;16.30;13.20;;;;;;;30.33;67.77;100447.31;5079330;27;69158;-34
2022/11/22 05:39:21;;;;;;;21.23;14.00;;;;;;;30.32;68.38;100450.28;5089204;27;65629;-33
2022/11/22 05:41:56;;;;;;;15.85;13.07;;;;;;;30.34;68.18;100449.00;5080250;27;70078;-31
2022/11/22 05:44:27;;;;;;;16.98;13.32;;;;;;;30.35;67.96;100439.81;5085714;27;65939;-31
2022/11/22 05:47:00;;;;;;;17.52;13.05;;;;;;;30.35;68.11;100429.00;5081197;27;70401;-34
2022/11/22 05:49:31;;;;;;;18.17;12.82;;;;;;;30.36;67.97;100429.81;5079901;27;66278;-35
2022/11/22 05:52:04;;;;;;;14.88;13.35;;;;;;;30.37;68.14;100426.03;5075640;27;69909;-36
2022/11/22 05:54:34;;;;;;;;;;;;;;;30.04;68.61;100433.50;5084794;27;65961;-32
2022/11/22 05:57:06;;;;;;;17.90;13.10;;;;;;;30.34;67.73;100415.69;5089285;27;69642;-36
2022/11/22 05:59:37;;;;;;;14.23;12.70;;;;;;;30.35;68.25;100414.66;5087559;27;66502;-33
2022/11/22 06:02:12;;;;;;;14.85;12.55;;;;;;;30.37;67.48;100410.66;5078487;27;69878;-34
2022/11/22 06:04:44;;;;;;;17.10;12.77;;;;;;;30.37;67.59;100404.41;5082791;27;66646;-34
2022/11/22 06:07:15;;;;;;;14.88;11.85;;;;;;;30.37;67.59;100413.38;5086679;27;69173;-32
2022/11/22 06:09:47;;;;;;;14.43;12.85;;;;;;;30.37;68.17;100409.81;5082283;27;65784;-35
2022/11/22 06:12:18;;;;;;;14.23;12.83;;;;;;;30.34;67.61;100394.03;5079141;27;70127;-31
2022/11/22 06:14:49;;;;;;;15.80;12.65;;;;;;;30.34;67.50;100388.63;5085422;27;65068;-32
2022/11/22 06:17:20;;;;;;;17.27;13.30;;;;;;;30.36;67.49;100389.22;5086591;27;70457;-31
2022/11/22 06:19:52;;;;;;;15.70;13.38;;;;;;;30.31;67.79;100370.13;5083460;27;66326;-32
2022/11/22 06:22:23;;;;;;;16.48;11.95;;;;;;;30.33;67.67;100368.03;5079781;27;71130;-32
2022/11/22 06:24:54;;;;;;;14.43;12.63;;;;;;;30.38;67.78;100376.31;5092856;27;66835;-34
2022/11/22 06:27:26;;;;;;;18.02;13.25;;;;;;;30.28;67.54;100358.75;5085629;27;69122;-34
2022/11/22 06:29:57;;;;;;;14.50;12.37;;;;;;;30.36;67.88;100365.69;5095820;27;65060;-33
2022/11/22 06:32:32;;;;;;;17.00;12.73;;;;;;;30.37;67.66;100374.63;5087543;27;69510;-32
2022/11/22 06:35:04;;;;;;;19.02;13.13;;;;;;;30.36;67.46;100348.63;5088053;27;66120;-34
2022/11/22 06:37:35;;;;;;;17.13;13.10;;;;;;;30.41;68.06;100362.31;5076623;27;70011;-33
2022/11/22 06:40:10;;;;;;;23.20;12.93;;;;;;;30.39;67.81;100348.19;5082407;27;66277;-32
2022/11/22 06:42:41;;;;;;;25.77;12.93;;;;;;;30.40;68.08;100350.66;5084365;27;69646;-31
2022/11/22 06:45:12;;;;;;;30.85;12.60;;;;;;;30.34;67.56;100339.91;5083693;27;66360;-33
2022/11/22 06:47:43;;;;;;;19.08;12.52;;;;;;;30.41;67.69;100351.47;5085951;27;69462;-30
2022/11/22 06:50:15;;;;;;;20.05;13.40;;;;;;;30.41;67.75;100346.06;5095314;27;65758;-31
2022/11/22 06:52:54;;;;;;;20.38;12.90;;;;;;;30.44;67.60;100337.50;5083551;27;70192;-32
2022/11/22 06:55:25;;;;;;;21.02;13.60;;;;;;;30.44;67.67;100337.50;5089442;27;65825;-32
2022/11/22 06:58:16;;;;;;;18.60;11.90;;;;;;;30.28;67.83;100310.03;5082028;27;69757;-31
2022/11/22 07:00:47;;;;;;;30.33;13.20;;;;;;;30.03;67.95;100266.88;5084992;27;65141;-32
2022/11/22 07:03:19;;;;;;;26.52;13.07;;;;;;;30.41;68.23;100321.72;5087843;27;69135;-31
2022/11/22 07:05:51;;;;;;;25.02;13.23;;;;;;;30.41;67.86;100314.41;5082505;27;65691;-31
2022/11/22 07:08:23;;;;;;;24.40;13.10;;;;;;;30.34;67.63;100296.63;5089519;27;69206;-34
2022/11/22 07:10:54;;;;;;;27.05;13.35;;;;;;;30.42;68.16;100293.59;5085031;27;66684;-31
2022/11/22 07:13:25;;;;;;;22.00;13.10;;;;;;;30.42;68.05;100293.59;5085500;27;69229;-31
2022/11/22 07:15:59;;;;;;;22.23;12.77;;;;;;;30.42;68.30;100289.03;5087742;27;65843;-32
2022/11/22 07:18:31;;;;;;;31.10;13.75;;;;;;;30.42;68.19;100288.19;5081900;27;70573;-31
2022/11/22 07:21:04;;;;;;;23.30;13.63;;;;;;;30.43;68.12;100312.31;5083799;27;65744;-30
2022/11/22 07:23:42;;;;;;;20.67;13.23;;;;;;;29.82;68.06;100197.88;5078848;27;70395;-31
2022/11/22 07:26:15;;;;;;;21.95;13.35;;;;;;;30.41;68.00;100291.94;5086545;27;65722;-31
2022/11/22 07:28:48;;;;;;;20.33;12.18;;;;;;;30.35;67.98;100282.06;5086186;27;70847;-34
2022/11/22 07:31:20;;;;;;;23.17;13.02;;;;;;;30.42;68.06;100288.19;5081926;27;66826;-31
2022/11/22 07:33:50;;;;;;;;;;;;;;;30.11;69.04;100292.75;5085882;27;69466;-31
2022/11/22 07:36:22;;;;;;;21.75;12.65;;;;;;;30.38;68.12;100295.13;5080519;27;66887;-31
2022/11/22 07:38:53;;;;;;;20.98;13.50;;;;;;;30.42;68.57;100299.00;5084590;27;70460;-31
2022/11/22 07:41:24;;;;;;;22.97;14.60;;;;;;;30.39;68.80;100288.63;5084994;27;66284;-33
2022/11/22 07:43:56;;;;;;;20.65;14.18;;;;;;;30.38;68.94;100287.81;5080438;27;69510;-34
2022/11/22 07:46:30;;;;;;;21.37;13.37;;;;;;;30.38;68.94;100287.00;5084913;27;66053;-31
2022/11/22 07:49:01;;;;;;;19.23;13.63;;;;;;;30.39;69.75;100291.34;5081268;27;70419;-32
2022/11/22 07:51:33;;;;;;;15.40;12.90;;;;;;;30.21;71.14;100273.28;5089698;27;65830;-31
2022/11/22 07:54:04;;;;;;;17.60;12.35;;;;;;;30.23;70.83;100282.84;5084395;27;69369;-31
2022/11/22 07:56:35;;;;;;;14.07;12.67;;;;;;;30.28;72.02;100293.81;5094025;27;66695;-31
2022/11/22 07:59:06;;;;;;;17.87;11.83;;;;;;;30.25;71.65;100298.84;5085085;27;70321;-34
2022/11/22 08:01:38;;;;;;;14.90;11.30;;;;;;;30.23;71.82;100295.56;5090389;27;65972;-34
2022/11/22 08:04:09;;;;;;;11.60;10.55;;;;;;;30.29;72.15;100305.44;5086252;27;69253;-32
2022/11/22 08:06:40;;;;;;;10.37;9.47;;;;;;;30.28;72.06;100296.50;5082538;27;64922;-32
2022/11/22 08:09:11;;;;;;;12.57;10.47;;;;;;;30.12;72.03;100283.59;5081543;27;70150;-31
2022/11/22 08:11:42;;;;;;;12.67;11.27;;;;;;;30.08;72.74;100276.97;5081297;27;66999;-33
2022/11/22 08:14:14;;;;;;;11.13;9.87;;;;;;;30.18;72.18;100304.31;5081266;27;69180;-34
2022/11/22 08:16:45;;;;;;;10.47;9.57;;;;;;;30.20;72.71;100314.88;5082667;27;65406;-31
2022/11/22 08:19:18;;;;;;;9.45;8.50;;;;;;;30.28;72.78;100323.56;5090043;27;69653;-31
2022/11/22 08:21:49;;;;;;;9.40;8.60;;;;;;;30.27;72.47;100324.59;5080272;27;65250;-34
2022/11/22 08:24:27;;;;;;;9.60;8.80;;;;;;;30.27;72.83;100324.59;5080570;27;70215;-31
2022/11/22 08:26:58;;;;;;;8.93;8.13;;;;;;;30.12;72.61;100310.66;5084204;27;65800;-32
2022/11/22 08:29:31;;;;;;;8.43;7.55;;;;;;;30.21;72.52;100320.09;5079405;27;68815;-33
2022/11/22 08:32:02;;;;;;;8.75;7.88;;;;;;;30.00;72.27;100296.22;5080337;27;66660;-32
2022/11/22 08:34:33;;;;;;;9.13;8.07;;;;;;;30.23;72.51;100333.44;5083326;27;69555;-33
2022/11/22 08:37:07;;;;;;;10.60;8.98;;;;;;;30.26;71.89;100339.19;4999079;27;2334605;-31
2022/11/22 08:39:38;;;;;;;9.70;8.90;;;;;;;29.95;72.21;100293.38;5080012;27;69951;-32
2022/11/22 08:42:10;;;;;;;9.10;8.18;;;;;;;30.22;72.12;100343.41;5084237;27;66282;-31
2022/11/22 08:44:41;;;;;;;8.93;8.10;;;;;;;30.23;71.81;100342.38;5088237;27;70504;-34
2022/11/22 08:47:12;;;;;;;10.67;8.00;;;;;;;30.07;71.46;100324.03;5090883;27;66027;-32
2022/11/22 08:49:43;;;;;;;8.60;7.90;;;;;;;30.19;71.70;100343.81;5085530;27;70192;-31
2022/11/22 08:52:15;;;;;;;8.30;7.43;;;;;;;29.79;71.30;100279.44;5064927;28;66386;-33
2022/11/22 08:54:46;;;;;;;8.20;7.50;;;;;;;30.18;71.58;100342.19;5079482;27;69179;-32
2022/11/22 08:57:20;;;;;;;6.72;6.28;;;;;;;30.16;71.28;100338.88;5088841;27;65198;-31
2022/11/22 08:59:51;;;;;;;7.70;7.10;;;;;;;30.15;71.45;100326.41;5080669;27;69311;-36
2022/11/22 09:02:23;;;;;;;8.65;6.50;;;;;;;30.15;71.17;100328.31;5083755;27;65836;-31
2022/11/22 09:04:54;;;;;;;7.43;6.83;;;;;;;30.15;71.79;100331.00;5086749;27;70464;-31
2022/11/22 09:07:25;;;;;;;8.52;7.25;;;;;;;30.12;71.23;100331.47;5081119;27;65779;-31
2022/11/22 09:10:16;;;;;;;6.60;6.20;;;;;;;30.10;71.35;100338.97;5089423;27;69661;-31
2022/11/22 09:12:47;;;;;;;6.67;6.07;;;;;;;30.16;71.64;100346.16;5084943;27;67023;-31
2022/11/22 09:15:19;;;;;;;6.93;6.30;;;;;;;30.05;73.89;100358.59;5078902;27;69914;-31
2022/11/22 09:17:50;;;;;;;16.95;7.38;;;;;;;29.90;75.56;100350.03;5084869;27;65174;-31
2022/11/22 09:20:21;;;;;;;11.25;6.28;;;;;;;29.86;76.09;100359.66;5061521;27;70593;-31
2022/11/22 09:22:53;;;;;;;6.63;6.00;;;;;;;29.78;76.64;100361.63;5082985;27;65137;-31
2022/11/22 09:25:24;;;;;;;5.88;5.28;;;;;;;29.72;77.22;100364.38;5076001;27;69350;-31
2022/11/22 09:27:58;;;;;;;6.40;5.67;;;;;;;29.71;77.60;100370.84;5084222;27;66447;-31
2022/11/22 09:30:30;;;;;;;10.95;5.63;;;;;;;29.68;77.26;100369.41;5087547;27;68253;-31
2022/11/22 09:33:02;;;;;;;6.75;6.10;;;;;;;29.67;77.42;100370.47;5085042;27;65706;-31
2022/11/22 09:35:34;;;;;;;5.57;5.07;;;;;;;29.61;78.04;100371.31;5077808;27;69557;-31
2022/11/22 09:38:07;;;;;;;6.00;5.18;;;;;;;29.60;77.83;100373.19;5089702;27;65729;-31
2022/11/22 09:40:38;;;;;;;7.40;4.78;;;;;;;29.59;78.71;100376.97;5079075;27;69551;-32
2022/11/22 09:43:50;;;;;;;15.30;5.85;;;;;;;29.40;78.36;100368.00;5084684;27;66406;-31
2022/11/22 09:46:31;;;;;;;8.23;5.30;;;;;;;29.31;78.99;100358.53;5040799;27;70085;-32
2022/11/22 09:49:26;;;;;;;5.70;5.20;;;;;;;28.59;79.01;100243.88;5094750;27;66970;-32
2022/11/22 09:52:20;;;;;;;5.13;4.65;;;;;;;29.54;78.69;100398.41;5087349;27;70139;-30
2022/11/22 09:54:56;;;;;;;6.15;5.50;;;;;;;29.52;78.75;100405.09;5082987;27;66220;-32
2022/11/22 09:57:46;;;;;;;6.45;5.82;;;;;;;29.45;79.06;100405.16;5068941;27;69627;-32
2022/11/22 10:00:26;;;;;;;14.48;5.95;;;;;;;29.05;79.46;100350.66;5089890;27;66814;-32
2022/11/22 10:03:09;;;;;;;8.40;6.22;;;;;;;29.53;79.13;100431.06;5088409;27;70590;-31
2022/11/22 10:05:57;;;;;;;6.32;5.72;;;;;;;29.50;79.50;100445.03;5085957;27;66325;-31
2022/11/22 10:08:46;;;;;;;6.10;5.60;;;;;;;29.45;79.97;100451.09;5081196;27;69513;-31
2022/11/22 10:11:56;;;;;;;10.90;6.35;;;;;;;29.43;79.97;100447.78;5081595;27;66092;-35
2022/11/22 10:14:43;;;;;;;6.90;5.80;;;;;;;29.33;79.88;100429.34;5088326;27;69863;-32
2022/11/22 10:17:17;;;;;;;6.38;5.70;;;;;;;29.48;80.08;100457.94;5084526;27;66173;-32
2022/11/22 10:20:03;;;;;;;11.43;6.93;;;;;;;29.49;80.54;100473.09;5082037;27;69986;-31
2022/11/22 10:22:34;;;;;;;9.45;6.07;;;;;;;29.46;81.05;100477.06;5088577;27;66612;-36
2022/11/22 10:25:31;;;;;;;11.30;6.15;;;;;;;29.40;81.28;100486.88;5082716;27;70438;-34
2022/11/22 10:28:38;;;;;;;6.18;5.57;;;;;;;29.36;81.38;100484.81;5082572;27;66322;-31
2022/11/22 10:31:22;;;;;;;6.45;5.45;;;;;;;29.45;81.30;100496.19;5088956;27;70425;-35
2022/11/22 10:33:54;;;;;;;17.30;5.80;;;;;;;29.46;81.71;100497.88;5084059;27;66263;-34
2022/11/22 10:36:35;;;;;;;6.35;5.75;;;;;;;28.91;81.26;100404.72;5082558;27;70772;-33
2022/11/22 10:39:25;;;;;;;10.40;5.78;;;;;;;29.43;81.51;100491.03;5082398;27;66332;-32
2022/11/22 10:42:18;;;;;;;10.40;6.25;;;;;;;29.47;82.04;100494.09;5088182;27;70384;-35
2022/11/22 10:45:35;;;;;;;8.13;5.25;;;;;;;29.40;81.48;100492.28;5086503;27;65559;-34
2022/11/22 10:48:15;;;;;;;9.82;5.50;;;;;;;29.43;82.26;100496.44;5051272;27;69469;-35
2022/11/22 10:50:52;;;;;;;6.00;4.95;;;;;;;29.43;82.30;100501.00;5080955;27;66709;-36
2022/11/22 10:53:48;;;;;;;5.85;4.65;;;;;;;29.42;82.54;100499.34;5083728;27;70470;-36
2022/11/22 10:56:41;;;;;;;7.32;5.30;;;;;;;29.41;82.66;100498.50;5087663;27;65458;-36
2022/11/22 10:59:45;;;;;;;8.50;4.95;;;;;;;29.34;83.01;100503.16;5083910;27;69746;-33
2022/11/22 11:02:52;;;;;;;6.40;3.85;;;;;;;29.23;81.44;100488.47;5082458;27;66142;-31
2022/11/22 11:05:34;;;;;;;4.60;3.50;;;;;;;29.47;81.34;100504.91;5081722;27;70542;-32
2022/11/22 11:08:08;;;;;;;;;;;;;;;29.18;82.01;100504.50;5093976;27;65650;-33
2022/11/22 11:11:01;;;;;;;4.38;3.78;;;;;;;29.48;80.48;100503.88;5080886;27;70375;-32
2022/11/22 11:13:43;;;;;;;6.30;4.53;;;;;;;29.10;81.05;100442.66;5093758;27;65982;-34
2022/11/22 11:16:22;;;;;;;4.47;4.07;;;;;;;29.55;80.45;100518.97;5080495;27;69436;-35
2022/11/22 11:19:12;;;;;;;6.78;3.72;;;;;;;29.58;80.10;100536.63;5080690;27;66021;-31
2022/11/22 11:21:44;;;;;;;4.63;4.22;;;;;;;29.59;79.89;100543.72;5086448;27;69611;-34
2022/11/22 11:24:16;;;;;;;5.22;3.50;;;;;;;29.60;79.55;100551.59;5081725;27;66445;-32
2022/11/22 11:26:56;;;;;;;4.68;4.28;;;;;;;29.60;79.18;100561.56;5082899;27;70988;-34
2022/11/22 11:29:47;;;;;;;4.28;3.80;;;;;;;29.52;79.28;100546.44;5084702;27;66196;-32
2022/11/22 11:32:20;;;;;;;4.10;3.80;;;;;;;29.47;79.72;100538.16;5087351;27;70122;-31
2022/11/22 11:35:03;;;;;;;4.22;3.92;;;;;;;29.61;79.55;100563.22;5066192;27;65341;-33
2022/11/22 11:37:36;;;;;;;4.68;4.20;;;;;;;29.09;79.67;100470.72;5086170;27;70566;-31
2022/11/22 11:40:31;;;;;;;6.22;5.20;;;;;;;29.51;80.01;100549.38;5083760;27;64492;-34
2022/11/22 11:43:19;;;;;;;6.65;6.13;;;;;;;29.60;79.00;100550.75;5084864;27;70686;-33
2022/11/22 11:45:51;;;;;;;7.20;6.15;;;;;;;29.48;79.27;100539.84;5071398;27;64978;-36
2022/11/22 11:48:27;;;;;;;6.68;6.07;;;;;;;29.59;78.55;100559.94;5091334;27;70357;-33
2022/11/22 11:51:16;;;;;;;6.78;6.22;;;;;;;29.39;79.05;100539.28;5081311;27;65897;-31
2022/11/22 11:53:56;;;;;;;7.75;6.70;;;;;;;29.58;79.15;100563.66;5083238;27;70158;-34
2022/11/22 11:56:32;;;;;;;6.90;6.30;;;;;;;29.58;79.20;100575.28;5091987;27;66445;-36
2022/11/22 11:59:11;;;;;;;6.75;6.25;;;;;;;29.50;78.76;100588.25;5087331;27;70131;-34
2022/11/22 12:02:04;;;;;;;6.32;5.82;;;;;;;29.50;80.05;100607.16;5087973;27;67315;-34
2022/11/22 12:04:47;;;;;;;11.32;7.57;;;;;;;29.39;80.63;100582.50;5084010;27;69672;-31